createdAt,value
2019-05-02T00:01:04.346Z,7.07
2019-05-02T00:03:06.940Z,11.30
2019-05-02T00:05:10.418Z,8.50
2019-05-02T00:07:14.456Z,8.63
2019-05-02T00:09:15.766Z,7.50
2019-05-02T00:11:18.892Z,14.40
2019-05-02T00:13:21.513Z,10.93
2019-05-02T00:15:24.152Z,7.00
2019-05-02T00:17:27.557Z,7.10
2019-05-02T00:19:29.412Z,8.27
2019-05-02T00:21:32.988Z,8.13
2019-05-02T00:23:34.647Z,10.60
2019-05-02T00:25:37.240Z,12.43
2019-05-02T00:27:39.849Z,10.83
2019-05-02T00:29:42.650Z,13.07
2019-05-02T00:31:47.046Z,8.80
2019-05-02T00:33:49.414Z,11.63
2019-05-02T00:35:52.208Z,7.57
2019-05-02T00:37:57.485Z,18.20
2019-05-02T00:39:57.505Z,9.53
2019-05-02T00:42:12.106Z,18.70
2019-05-02T00:44:06.008Z,11.30
2019-05-02T00:46:05.396Z,15.17
2019-05-02T00:48:10.008Z,16.33
2019-05-02T00:50:13.482Z,13.80
2019-05-02T00:52:16.084Z,13.27
2019-05-02T00:54:24.202Z,14.93
2019-05-02T00:56:22.552Z,16.87
2019-05-02T00:58:27.219Z,23.80
2019-05-02T01:00:28.688Z,14.60
2019-05-02T01:02:46.996Z,13.37
2019-05-02T01:04:49.622Z,17.27
2019-05-02T01:06:52.257Z,22.33
2019-05-02T01:08:54.856Z,11.40
2019-05-02T01:10:58.115Z,14.83
2019-05-02T01:13:01.073Z,10.07
2019-05-02T01:15:08.397Z,16.20
2019-05-02T01:17:07.918Z,16.23
2019-05-02T01:19:12.091Z,15.60
2019-05-02T01:21:13.344Z,16.83
2019-05-02T01:23:16.059Z,20.13
2019-05-02T01:25:19.435Z,14.73
2019-05-02T01:27:41.083Z,17.43
2019-05-02T01:30:01.333Z,13.90
2019-05-02T01:32:15.623Z,17.43
2019-05-02T01:34:34.640Z,23.53
2019-05-02T01:36:41.019Z,23.70
2019-05-02T01:38:41.664Z,20.23
2019-05-02T01:40:48.163Z,21.33
2019-05-02T01:42:49.008Z,23.60
2019-05-02T01:44:50.297Z,24.67
2019-05-02T01:46:53.977Z,20.10
2019-05-02T01:48:56.178Z,25.60
2019-05-02T01:51:04.454Z,18.50
2019-05-02T01:53:02.582Z,21.87
2019-05-02T01:55:05.144Z,16.23
2019-05-02T01:57:09.888Z,20.57
2019-05-02T01:59:11.147Z,17.73
2019-05-02T02:01:16.090Z,23.00
2019-05-02T02:03:17.320Z,28.50
2019-05-02T02:05:19.892Z,26.30
2019-05-02T02:07:22.459Z,24.13
2019-05-02T02:09:25.149Z,24.80
2019-05-02T02:11:28.407Z,26.63
2019-05-02T02:13:35.933Z,28.00
2019-05-02T02:15:33.687Z,24.83
2019-05-02T02:17:36.259Z,28.70
2019-05-02T02:19:44.320Z,30.53
2019-05-02T02:21:46.988Z,29.00
2019-05-02T02:23:51.017Z,27.33
2019-05-02T02:26:11.393Z,27.07
2019-05-02T02:28:09.276Z,24.60
2019-05-02T02:30:17.775Z,29.67
2019-05-02T02:32:20.102Z,20.90
2019-05-02T02:34:21.321Z,21.47
2019-05-02T02:36:29.559Z,21.93
2019-05-02T02:38:26.897Z,27.00
2019-05-02T02:40:32.904Z,26.63
2019-05-02T02:42:31.865Z,26.30
2019-05-02T02:44:40.062Z,37.83
2019-05-02T02:46:48.796Z,24.37
2019-05-02T02:48:51.420Z,25.67
2019-05-02T02:50:54.224Z,21.53
2019-05-02T02:52:58.291Z,22.07
2019-05-02T02:55:00.891Z,24.30
2019-05-02T02:57:05.471Z,24.00
2019-05-02T02:59:08.052Z,31.80
2019-05-02T03:01:10.620Z,27.53
2019-05-02T03:03:13.214Z,31.93
2019-05-02T03:05:18.924Z,28.03
2019-05-02T03:07:25.803Z,32.07
2019-05-02T03:09:26.809Z,27.70
2019-05-02T03:11:25.515Z,36.87
2019-05-02T03:13:28.812Z,22.63
2019-05-02T03:15:31.377Z,33.67
2019-05-02T03:17:34.746Z,27.60
2019-05-02T03:19:37.389Z,27.80
2019-05-02T03:21:39.951Z,26.80
2019-05-02T03:23:42.523Z,29.03
2019-05-02T03:25:50.928Z,24.73
2019-05-02T03:27:47.884Z,30.80
2019-05-02T03:29:50.697Z,28.00
2019-05-02T03:32:11.382Z,29.10
2019-05-02T03:34:00.703Z,29.80
2019-05-02T03:35:58.416Z,29.80
2019-05-02T03:38:01.076Z,28.10
2019-05-02T03:40:03.618Z,31.03
2019-05-02T03:42:06.212Z,24.33
2019-05-02T03:44:11.875Z,27.95
2019-05-02T03:46:13.483Z,23.43
2019-05-02T03:48:18.260Z,36.00
2019-05-02T03:50:16.803Z,30.00
2019-05-02T03:52:19.380Z,34.27
2019-05-02T03:54:21.972Z,35.30
2019-05-02T03:56:24.563Z,35.13
2019-05-02T03:58:27.204Z,33.07
2019-05-02T04:00:29.914Z,36.90
2019-05-02T04:02:32.566Z,35.63
2019-05-02T04:04:35.126Z,34.00
2019-05-02T04:06:37.759Z,24.83
2019-05-02T04:08:41.120Z,28.47
2019-05-02T04:11:03.441Z,32.37
2019-05-02T04:13:06.040Z,31.40
2019-05-02T04:15:09.758Z,25.77
2019-05-02T04:17:11.173Z,31.13
2019-05-02T04:19:14.019Z,33.37
2019-05-02T04:21:24.116Z,35.20
2019-05-02T04:23:21.220Z,32.73
2019-05-02T04:25:28.017Z,30.40
2019-05-02T04:27:27.644Z,28.60
2019-05-02T04:29:31.380Z,31.70
2019-05-02T04:31:33.733Z,35.23
2019-05-02T04:33:36.469Z,32.87
2019-05-02T04:35:37.200Z,45.27
2019-05-02T04:37:41.266Z,36.23
2019-05-02T04:39:42.343Z,36.17
2019-05-02T04:41:44.902Z,32.73
2019-05-02T04:43:57.397Z,34.53
2019-05-02T04:45:56.007Z,27.30
2019-05-02T04:47:58.472Z,34.37
2019-05-02T04:49:55.388Z,34.50
2019-05-02T04:52:06.164Z,42.27
2019-05-02T04:54:00.662Z,25.60
2019-05-02T04:56:07.091Z,37.03
2019-05-02T04:58:08.309Z,38.50
2019-05-02T05:00:11.745Z,41.70
2019-05-02T05:02:11.155Z,37.67
2019-05-02T05:04:13.724Z,33.97
2019-05-02T05:06:18.650Z,37.30
2019-05-02T05:08:26.193Z,45.60
2019-05-02T05:10:21.526Z,31.17
2019-05-02T05:12:24.099Z,39.77
2019-05-02T05:14:33.242Z,41.80
2019-05-02T05:16:30.879Z,37.63
2019-05-02T05:18:33.482Z,40.83
2019-05-02T05:20:38.453Z,39.77
2019-05-02T05:22:44.130Z,33.20
2019-05-02T05:24:58.216Z,43.70
2019-05-02T05:27:00.309Z,32.60
2019-05-02T05:29:02.967Z,36.83
2019-05-02T05:31:07.521Z,34.57
2019-05-02T05:33:10.307Z,32.67
2019-05-02T05:35:13.093Z,35.83
2019-05-02T05:37:14.667Z,37.13
2019-05-02T05:39:17.600Z,42.13
2019-05-02T05:41:22.988Z,43.80
2019-05-02T05:43:22.619Z,30.83
2019-05-02T05:45:27.901Z,36.20
2019-05-02T05:47:28.659Z,36.47
2019-05-02T05:49:31.231Z,31.40
2019-05-02T05:51:34.003Z,35.43
2019-05-02T05:53:37.496Z,32.73
2019-05-02T05:55:40.275Z,34.10
2019-05-02T05:57:42.872Z,29.13
2019-05-02T05:59:45.434Z,31.10
2019-05-02T06:01:51.428Z,30.60
2019-05-02T06:03:51.407Z,32.70
2019-05-02T06:05:53.963Z,33.63
2019-05-02T06:07:57.512Z,31.57
2019-05-02T06:10:02.197Z,28.83
2019-05-02T06:12:01.799Z,34.37
2019-05-02T06:14:04.369Z,36.20
2019-05-02T06:16:10.541Z,39.97
2019-05-02T06:18:09.613Z,35.23
2019-05-02T06:20:12.191Z,35.13
2019-05-02T06:22:16.545Z,34.40
2019-05-02T06:24:17.467Z,37.37
2019-05-02T06:26:20.201Z,56.27
2019-05-02T06:28:22.955Z,44.37
2019-05-02T06:30:27.159Z,38.80
2019-05-02T06:32:28.856Z,57.97
2019-05-02T06:34:31.440Z,56.50
2019-05-02T06:36:36.826Z,63.77
2019-05-02T06:38:36.551Z,66.03
2019-05-02T06:40:44.115Z,67.87
2019-05-02T06:42:42.229Z,59.77
2019-05-02T06:44:45.606Z,62.80
2019-05-02T06:46:48.407Z,50.73
2019-05-02T06:48:52.278Z,58.70
2019-05-02T06:50:53.560Z,70.87
2019-05-02T06:52:56.131Z,58.97
2019-05-02T06:54:59.174Z,58.83
2019-05-02T06:57:02.399Z,73.53
2019-05-02T06:59:05.002Z,69.40
2019-05-02T07:01:07.593Z,68.63
2019-05-02T07:03:11.669Z,61.43
2019-05-02T07:05:15.768Z,74.17
2019-05-02T07:07:18.437Z,64.33
2019-05-02T07:09:20.888Z,71.03
2019-05-02T07:11:23.491Z,76.93
2019-05-02T07:13:26.063Z,71.90
2019-05-02T07:15:49.584Z,65.80
2019-05-02T07:17:52.173Z,79.37
2019-05-02T07:20:03.870Z,75.60
2019-05-02T07:22:04.434Z,66.80
2019-05-02T07:24:06.198Z,78.60
2019-05-02T07:26:08.743Z,65.70
2019-05-02T07:28:11.481Z,73.40
2019-05-02T07:30:14.059Z,77.10
2019-05-02T07:32:19.345Z,78.07
2019-05-02T07:34:20.775Z,66.70
2019-05-02T07:36:23.454Z,70.00
2019-05-02T07:38:27.550Z,74.97
2019-05-02T07:40:28.594Z,73.37
2019-05-02T07:42:31.171Z,77.70
2019-05-02T07:44:34.545Z,74.27
2019-05-02T07:46:36.320Z,82.70
2019-05-02T07:48:39.099Z,71.40
2019-05-02T07:50:46.403Z,78.93
2019-05-02T07:52:44.251Z,80.00
2019-05-02T07:54:46.844Z,70.70
2019-05-02T07:56:53.499Z,67.60
2019-05-02T07:58:53.506Z,74.23
2019-05-02T08:00:56.206Z,90.80
2019-05-02T08:02:59.410Z,81.47
2019-05-02T08:05:01.305Z,71.33
2019-05-02T08:07:03.899Z,72.20
2019-05-02T08:09:07.058Z,74.40
2019-05-02T08:11:09.456Z,83.33
2019-05-02T08:13:17.440Z,78.40
2019-05-02T08:15:15.606Z,66.63
2019-05-02T08:17:19.340Z,77.35
2019-05-02T08:19:23.547Z,87.90
2019-05-02T08:21:27.410Z,64.37
2019-05-02T08:23:27.896Z,80.83
2019-05-02T08:25:30.214Z,78.33
2019-05-02T08:27:34.613Z,73.53
2019-05-02T08:29:35.516Z,83.57
2019-05-02T08:31:38.271Z,83.43
2019-05-02T08:33:40.831Z,71.13
2019-05-02T08:35:43.403Z,76.30
2019-05-02T08:37:46.571Z,85.83
2019-05-02T08:39:49.531Z,75.33
2019-05-02T08:41:56.542Z,83.83
2019-05-02T08:43:54.857Z,81.33
2019-05-02T08:45:57.927Z,81.80
2019-05-02T08:48:05.203Z,77.67
2019-05-02T08:50:03.168Z,76.33
2019-05-02T08:52:05.754Z,83.40
2019-05-02T08:54:08.339Z,79.53
2019-05-02T08:56:11.015Z,78.43
2019-05-02T08:58:14.632Z,80.77
2019-05-02T09:00:16.155Z,84.57
2019-05-02T09:02:21.120Z,76.90
2019-05-02T09:04:24.235Z,81.37
2019-05-02T09:06:25.448Z,85.47
2019-05-02T09:08:28.753Z,85.30
2019-05-02T09:10:31.306Z,98.70
2019-05-02T09:12:36.863Z,79.77
2019-05-02T09:14:38.887Z,87.07
2019-05-02T09:16:42.742Z,88.87
2019-05-02T09:18:50.567Z,83.20
2019-05-02T09:20:51.482Z,70.03
2019-05-02T09:22:52.241Z,77.93
2019-05-02T09:24:53.667Z,83.17
2019-05-02T09:26:56.220Z,96.60
2019-05-02T09:29:01.671Z,73.50
2019-05-02T09:31:02.887Z,82.73
2019-05-02T09:33:06.507Z,84.17
2019-05-02T09:35:06.623Z,76.47
2019-05-02T09:37:09.436Z,89.07
2019-05-02T09:39:12.115Z,74.93
2019-05-02T09:41:19.359Z,75.07
2019-05-02T09:43:18.875Z,76.13
2019-05-02T09:45:22.725Z,77.37
2019-05-02T09:47:27.349Z,85.73
2019-05-02T09:49:27.112Z,85.87
2019-05-02T09:51:29.661Z,78.17
2019-05-02T09:53:32.559Z,76.80
2019-05-02T09:55:35.240Z,73.17
2019-05-02T09:57:38.162Z,75.17
2019-05-02T09:59:43.429Z,74.10
2019-05-02T10:01:44.477Z,72.20
2019-05-02T10:03:47.043Z,73.83
2019-05-02T10:05:49.648Z,66.40
2019-05-02T10:07:57.458Z,74.70
2019-05-02T10:09:57.670Z,73.33
2019-05-02T10:11:59.425Z,68.83
2019-05-02T10:14:02.477Z,64.90
2019-05-02T10:16:05.200Z,68.93
2019-05-02T10:18:12.000Z,60.43
2019-05-02T10:20:12.463Z,72.60
2019-05-02T10:22:14.531Z,71.13
2019-05-02T10:24:17.132Z,68.07
2019-05-02T10:26:23.782Z,74.27
2019-05-02T10:28:22.972Z,63.47
2019-05-02T10:30:25.164Z,63.47
2019-05-02T10:32:27.843Z,80.30
2019-05-02T10:34:30.376Z,62.77
2019-05-02T10:36:32.924Z,65.80
2019-05-02T10:38:35.509Z,61.87
2019-05-02T10:40:38.108Z,79.47
2019-05-02T10:42:41.958Z,72.53
2019-05-02T10:44:43.249Z,75.53
2019-05-02T10:46:56.711Z,64.60
2019-05-02T10:49:13.740Z,66.30
2019-05-02T10:51:41.803Z,60.53
2019-05-02T10:53:42.221Z,58.10
2019-05-02T10:55:43.153Z,62.63
2019-05-02T10:57:45.790Z,48.07
2019-05-02T10:59:48.782Z,54.87
2019-05-02T11:01:53.820Z,59.40
2019-05-02T11:03:57.416Z,49.70
2019-05-02T11:06:03.666Z,48.90
2019-05-02T11:08:06.350Z,47.30
2019-05-02T11:10:08.101Z,44.53
2019-05-02T11:12:11.813Z,47.90
2019-05-02T11:14:15.832Z,38.87
2019-05-02T11:16:24.164Z,45.13
2019-05-02T11:18:40.267Z,42.70
2019-05-02T11:20:31.902Z,43.70
2019-05-02T11:22:34.079Z,39.00
2019-05-02T11:24:37.511Z,45.13
2019-05-02T11:26:40.043Z,46.03
2019-05-02T11:28:42.640Z,37.07
2019-05-02T11:30:45.201Z,37.97
2019-05-02T11:32:47.771Z,42.90
2019-05-02T11:34:52.270Z,39.33
2019-05-02T11:36:52.954Z,39.33
2019-05-02T11:39:03.840Z,41.33
2019-05-02T11:40:58.270Z,40.23
2019-05-02T11:43:04.915Z,46.80
2019-05-02T11:45:03.395Z,33.30
2019-05-02T11:47:05.987Z,44.60
2019-05-02T11:49:08.562Z,34.50
2019-05-02T11:51:12.669Z,39.40
2019-05-02T11:53:24.706Z,35.97
2019-05-02T11:55:19.037Z,32.67
2019-05-02T11:57:22.716Z,32.53
2019-05-02T11:59:27.617Z,41.40
2019-05-02T12:01:35.736Z,46.87
2019-05-02T12:03:28.217Z,46.80
2019-05-02T12:05:31.710Z,44.07
2019-05-02T12:07:33.270Z,40.87
2019-05-02T12:09:35.839Z,44.80
2019-05-02T12:11:38.609Z,43.87
2019-05-02T12:13:42.769Z,37.20
2019-05-02T12:15:44.483Z,39.43
2019-05-02T12:17:46.848Z,41.10
2019-05-02T12:19:49.411Z,33.87
2019-05-02T12:21:52.965Z,30.80
2019-05-02T12:23:55.475Z,36.73
2019-05-02T12:25:58.255Z,29.33
2019-05-02T12:28:02.305Z,24.33
2019-05-02T12:30:04.335Z,35.90
2019-05-02T12:32:06.899Z,34.27
2019-05-02T12:34:09.448Z,33.73
2019-05-02T12:36:12.498Z,28.13
2019-05-02T12:38:16.544Z,32.63
2019-05-02T12:40:19.099Z,27.93
2019-05-02T12:42:23.925Z,32.00
2019-05-02T12:44:24.991Z,30.50
2019-05-02T12:46:28.579Z,27.63
2019-05-02T12:48:32.829Z,32.33
2019-05-02T12:50:34.880Z,29.87
2019-05-02T12:52:38.282Z,25.40
2019-05-02T12:54:41.662Z,29.43
2019-05-02T12:56:43.408Z,42.20
2019-05-02T12:58:45.980Z,39.33
2019-05-02T13:00:49.903Z,36.83
2019-05-02T13:02:52.611Z,29.77
2019-05-02T13:04:55.077Z,33.80
2019-05-02T13:06:57.623Z,29.10
2019-05-02T13:09:00.182Z,33.87
2019-05-02T13:11:08.263Z,36.83
2019-05-02T13:13:12.289Z,31.10
2019-05-02T13:15:13.457Z,36.90
2019-05-02T13:17:16.021Z,23.77
2019-05-02T13:19:18.622Z,27.90
2019-05-02T13:21:23.478Z,29.67
2019-05-02T13:23:42.522Z,35.47
2019-05-02T13:25:43.919Z,30.10
2019-05-02T13:27:48.118Z,24.60
2019-05-02T13:29:49.041Z,26.07
2019-05-02T13:31:53.518Z,31.27
2019-05-02T13:34:14.714Z,25.60
2019-05-02T13:36:26.331Z,32.90
2019-05-02T13:38:30.435Z,26.73
2019-05-02T13:40:33.893Z,26.33
2019-05-02T13:42:37.168Z,33.90
2019-05-02T13:44:42.516Z,38.43
2019-05-02T13:46:45.076Z,32.67
2019-05-02T13:48:47.635Z,27.50
2019-05-02T13:50:51.826Z,33.17
2019-05-02T13:52:57.700Z,30.57
2019-05-02T13:54:55.366Z,28.47
2019-05-02T13:56:58.187Z,33.03
2019-05-02T13:59:02.591Z,25.83
2019-05-02T14:01:03.490Z,27.10
2019-05-02T14:03:06.733Z,33.97
2019-05-02T14:05:10.107Z,32.20
2019-05-02T14:07:17.365Z,24.13
2019-05-02T14:09:22.471Z,31.47
2019-05-02T14:11:31.753Z,25.90
2019-05-02T14:13:32.784Z,32.43
2019-05-02T14:15:35.486Z,30.20
2019-05-02T14:17:38.031Z,32.23
2019-05-02T14:19:42.097Z,27.17
2019-05-02T14:21:43.284Z,31.93
2019-05-02T14:23:45.882Z,33.67
2019-05-02T14:25:48.533Z,30.80
2019-05-02T14:27:53.864Z,24.27
2019-05-02T14:29:53.708Z,27.00
2019-05-02T14:31:56.244Z,34.63
2019-05-02T14:34:04.516Z,29.77
2019-05-02T14:36:07.083Z,28.40
2019-05-02T14:38:12.857Z,29.80
2019-05-02T14:40:15.280Z,32.47
2019-05-02T14:42:22.286Z,38.63
2019-05-02T14:44:26.872Z,27.80
2019-05-02T14:46:28.758Z,34.00
2019-05-02T14:48:27.369Z,27.83
2019-05-02T14:50:31.897Z,39.03
2019-05-02T14:52:37.172Z,29.40
2019-05-02T14:54:38.003Z,30.43
2019-05-02T14:56:47.683Z,33.20
2019-05-02T14:58:47.019Z,35.63
2019-05-02T15:00:49.576Z,28.60
2019-05-02T15:02:52.122Z,35.33
2019-05-02T15:04:54.843Z,31.07
2019-05-02T15:06:57.456Z,27.60
2019-05-02T15:09:02.447Z,28.80
2019-05-02T15:11:03.554Z,30.10
2019-05-02T15:13:08.023Z,25.00
2019-05-02T15:15:12.325Z,27.07
2019-05-02T15:17:14.403Z,32.27
2019-05-02T15:19:16.943Z,28.53
2019-05-02T15:21:19.499Z,24.03
2019-05-02T15:23:22.740Z,28.53
2019-05-02T15:25:24.669Z,24.80
2019-05-02T15:27:39.382Z,28.33
2019-05-02T15:29:32.203Z,24.30
2019-05-02T15:31:35.390Z,23.90
2019-05-02T15:34:01.541Z,23.17
2019-05-02T15:36:07.529Z,20.87
2019-05-02T15:38:08.137Z,29.37
2019-05-02T15:42:13.414Z,18.13
2019-05-02T15:44:18.945Z,22.03
2019-05-02T15:46:23.860Z,23.67
2019-05-02T15:48:26.034Z,22.63
2019-05-02T15:50:25.465Z,23.50
2019-05-02T15:52:27.832Z,18.87
2019-05-02T15:54:28.850Z,21.43
2019-05-02T15:56:32.447Z,19.67
2019-05-02T15:58:34.014Z,19.47
2019-05-02T16:00:36.656Z,37.23
2019-05-02T16:02:39.204Z,21.43
2019-05-02T16:04:41.874Z,21.47
2019-05-02T16:06:45.376Z,21.50
2019-05-02T16:08:48.725Z,17.67
2019-05-02T16:10:51.316Z,13.50
2019-05-02T16:12:54.635Z,21.93
2019-05-02T16:14:57.246Z,14.30
2019-05-02T16:17:01.837Z,18.20
2019-05-02T16:19:03.450Z,16.77
2019-05-02T16:21:07.920Z,13.57
2019-05-02T16:23:08.663Z,15.50
2019-05-02T16:25:12.217Z,17.87
2019-05-02T16:27:16.451Z,14.80
2019-05-02T16:29:23.417Z,17.13
2019-05-02T16:31:22.100Z,20.17
2019-05-02T16:33:21.624Z,21.33
2019-05-02T16:35:24.173Z,11.93
2019-05-02T16:37:26.718Z,18.53
2019-05-02T16:39:32.398Z,17.30
2019-05-02T16:41:33.208Z,19.50
2019-05-02T16:43:36.533Z,12.83
2019-05-02T16:45:39.639Z,14.33
2019-05-02T16:47:42.351Z,17.47
2019-05-02T16:49:48.005Z,17.30
2019-05-02T16:51:48.996Z,16.50
2019-05-02T16:53:51.575Z,13.60
2019-05-02T16:55:58.472Z,16.33
2019-05-02T16:58:05.221Z,15.80
2019-05-02T17:00:05.699Z,17.30
2019-05-02T17:02:07.710Z,13.60
2019-05-02T17:04:06.834Z,18.90
2019-05-02T17:06:07.947Z,14.70
2019-05-02T17:08:18.921Z,17.70
2019-05-02T17:10:17.774Z,15.20
2019-05-02T17:12:19.443Z,18.40
2019-05-02T17:14:22.136Z,16.20
2019-05-02T17:16:26.111Z,14.03
2019-05-02T17:18:28.807Z,14.93
2019-05-02T17:20:31.932Z,13.43
2019-05-02T17:22:33.932Z,11.70
2019-05-02T17:24:36.633Z,17.20
2019-05-02T17:26:39.201Z,17.07
2019-05-02T17:28:45.278Z,11.63
2019-05-02T17:30:44.454Z,14.57
2019-05-02T17:32:46.992Z,15.40
2019-05-02T17:34:49.543Z,19.43
2019-05-02T17:36:53.942Z,10.77
2019-05-02T17:38:59.268Z,14.23
2019-05-02T17:41:06.408Z,22.83
2019-05-02T17:43:06.747Z,19.13
2019-05-02T17:45:05.604Z,17.17
2019-05-02T17:47:09.712Z,17.87
2019-05-02T17:49:12.349Z,21.90
2019-05-02T17:51:28.402Z,20.27
2019-05-02T17:53:33.838Z,15.90
2019-05-02T17:55:40.427Z,17.93
2019-05-02T17:57:38.163Z,21.30
2019-05-02T17:59:42.238Z,18.03
2019-05-02T18:01:44.378Z,19.93
2019-05-02T18:03:47.032Z,16.23
2019-05-02T18:05:49.596Z,20.87
2019-05-02T18:07:52.817Z,17.10
2019-05-02T18:09:56.486Z,16.67
2019-05-02T18:11:59.313Z,12.27
2019-05-02T18:14:05.630Z,15.10
2019-05-02T18:16:07.768Z,13.67
2019-05-02T18:18:10.007Z,19.67
2019-05-02T18:20:13.672Z,14.73
2019-05-02T18:22:23.399Z,19.70
2019-05-02T18:24:18.880Z,22.97
2019-05-02T18:26:22.227Z,12.83
2019-05-02T18:28:26.381Z,14.67
2019-05-02T18:30:28.296Z,17.83
2019-05-02T18:32:31.555Z,11.30
2019-05-02T18:34:34.206Z,15.00
2019-05-02T18:36:36.791Z,12.20
2019-05-02T18:38:41.597Z,12.90
2019-05-02T18:40:42.886Z,9.53
2019-05-02T18:42:45.449Z,16.07
2019-05-02T18:44:52.575Z,11.17
2019-05-02T18:46:51.885Z,13.53
2019-05-02T18:48:55.448Z,16.30
2019-05-02T18:50:58.784Z,12.37
2019-05-02T18:53:03.329Z,15.63
2019-05-02T18:55:05.844Z,13.83
2019-05-02T18:57:08.883Z,12.20
2019-05-02T18:59:14.271Z,24.00
2019-05-02T19:01:18.490Z,18.97
2019-05-02T19:03:22.610Z,15.80
2019-05-02T19:05:26.300Z,18.77
2019-05-02T19:07:33.235Z,17.10
2019-05-02T19:09:33.067Z,22.87
2019-05-02T19:11:35.271Z,17.53
2019-05-02T19:13:37.624Z,16.60
2019-05-02T19:15:39.592Z,15.57
2019-05-02T19:17:43.226Z,21.17
2019-05-02T19:19:44.979Z,15.30
2019-05-02T19:21:47.548Z,21.17
2019-05-02T19:23:51.764Z,23.20
2019-05-02T19:25:52.976Z,15.67
2019-05-02T19:27:59.069Z,17.40
2019-05-02T19:30:02.823Z,16.37
2019-05-02T19:32:03.767Z,20.17
2019-05-02T19:34:06.500Z,15.13
2019-05-02T19:36:11.311Z,23.13
2019-05-02T19:38:17.206Z,19.80
2019-05-02T19:40:20.021Z,17.53
2019-05-02T19:42:22.552Z,23.07
2019-05-02T19:44:28.794Z,15.30
2019-05-02T19:46:34.748Z,23.50
2019-05-02T19:48:33.022Z,18.40
2019-05-02T19:50:39.296Z,19.37
2019-05-02T19:52:39.317Z,21.40
2019-05-02T19:54:41.677Z,19.07
2019-05-02T19:56:47.307Z,21.00
2019-05-02T19:58:46.833Z,22.30
2019-05-02T20:00:48.627Z,23.90
2019-05-02T20:02:52.275Z,22.50
2019-05-02T20:04:54.077Z,24.13
2019-05-02T20:06:56.630Z,19.20
2019-05-02T20:09:04.727Z,21.10
2019-05-02T20:11:02.409Z,23.30
2019-05-02T20:13:05.128Z,29.90
2019-05-02T20:15:07.988Z,25.87
2019-05-02T20:17:10.557Z,17.37
2019-05-02T20:19:17.234Z,24.33
2019-05-02T20:21:27.232Z,25.33
2019-05-02T20:23:28.596Z,22.53
2019-05-02T20:25:29.872Z,28.80
2019-05-02T20:27:32.788Z,27.27
2019-05-02T20:29:34.163Z,22.60
2019-05-02T20:31:38.019Z,22.17
2019-05-02T20:33:43.076Z,25.17
2019-05-02T20:35:44.701Z,26.90
2019-05-02T20:37:47.378Z,26.23
2019-05-02T20:39:50.375Z,27.93
2019-05-02T20:41:53.886Z,23.93
2019-05-02T20:43:57.231Z,22.63
2019-05-02T20:46:02.394Z,21.63
2019-05-02T20:48:03.520Z,22.03
2019-05-02T20:50:06.401Z,24.27
2019-05-02T20:52:09.385Z,20.70
2019-05-02T20:54:12.763Z,23.83
2019-05-02T20:56:15.337Z,29.40
2019-05-02T20:58:17.894Z,19.70
2019-05-02T21:00:24.352Z,27.87
2019-05-02T21:02:27.031Z,22.33
2019-05-02T21:04:31.733Z,20.30
2019-05-02T21:06:40.926Z,20.57
2019-05-02T21:08:36.732Z,19.33
2019-05-02T21:10:41.707Z,20.83
2019-05-02T21:12:43.495Z,21.77
2019-05-02T21:14:46.180Z,22.30
2019-05-02T21:16:48.736Z,25.63
2019-05-02T21:18:51.327Z,26.03
2019-05-02T21:20:54.603Z,24.27
2019-05-02T21:22:57.176Z,23.17
2019-05-02T21:24:59.847Z,29.10
2019-05-02T21:27:02.412Z,30.60
2019-05-02T21:29:04.963Z,23.80
2019-05-02T21:31:07.674Z,22.37
2019-05-02T21:33:42.820Z,26.90
2019-05-02T21:35:44.155Z,18.53
2019-05-02T21:37:46.831Z,23.30
2019-05-02T21:39:49.381Z,17.43
2019-05-02T21:41:51.981Z,18.10
2019-05-02T21:43:55.377Z,21.87
2019-05-02T21:45:57.935Z,19.83
2019-05-02T21:48:02.165Z,23.40
2019-05-02T21:50:03.542Z,32.60
2019-05-02T21:52:08.779Z,21.30
2019-05-02T21:54:17.034Z,20.70
2019-05-02T21:56:21.771Z,26.07
2019-05-02T21:58:24.412Z,26.90
2019-05-02T22:00:32.838Z,21.87
2019-05-02T22:02:35.164Z,25.40
2019-05-02T22:04:38.507Z,26.43
2019-05-02T22:06:42.670Z,22.33
2019-05-02T22:08:43.659Z,19.53
2019-05-02T22:10:46.251Z,30.27
2019-05-02T22:12:48.793Z,26.67
2019-05-02T22:14:52.786Z,21.50
2019-05-02T22:16:53.947Z,22.80
2019-05-02T22:18:56.495Z,16.50
2019-05-02T22:20:59.335Z,20.75
2019-05-02T22:23:02.402Z,19.23
2019-05-02T22:25:05.827Z,21.17
2019-05-02T22:27:09.244Z,16.53
2019-05-02T22:29:12.373Z,19.80
2019-05-02T22:31:15.436Z,19.97
2019-05-02T22:33:18.023Z,17.53
2019-05-02T22:35:21.694Z,10.33
2019-05-02T22:37:23.271Z,10.60
2019-05-02T22:39:31.818Z,10.77
2019-05-02T22:41:34.269Z,11.00
2019-05-02T22:43:36.932Z,9.40
2019-05-02T22:45:39.498Z,10.57
2019-05-02T22:47:42.606Z,8.60
2019-05-02T22:49:44.616Z,9.27
2019-05-02T22:51:47.437Z,10.50
2019-05-02T22:53:49.982Z,11.97
2019-05-02T22:55:52.559Z,8.40
2019-05-02T22:57:55.460Z,12.53
2019-05-02T22:59:58.031Z,8.03
2019-05-02T23:02:02.187Z,12.40
2019-05-02T23:04:03.300Z,10.30
2019-05-02T23:06:05.870Z,9.40
2019-05-02T23:08:08.843Z,9.50
2019-05-02T23:10:12.618Z,7.73
2019-05-02T23:12:13.992Z,7.73
2019-05-02T23:14:16.650Z,8.40
2019-05-02T23:16:19.199Z,8.80
2019-05-02T23:18:22.815Z,9.00
2019-05-02T23:20:24.566Z,10.17
2019-05-02T23:22:27.347Z,11.20
2019-05-02T23:24:39.077Z,10.10
2019-05-02T23:26:55.992Z,8.23
2019-05-02T23:29:02.220Z,5.60
2019-05-02T23:31:03.536Z,8.50
2019-05-02T23:33:06.223Z,10.27
2019-05-02T23:35:09.688Z,9.13
2019-05-02T23:37:12.994Z,5.20
2019-05-02T23:39:15.571Z,5.90
2019-05-02T23:41:18.840Z,6.20
2019-05-02T23:43:22.632Z,7.30
2019-05-02T23:45:26.084Z,6.33
2019-05-02T23:47:28.640Z,7.20
2019-05-02T23:49:32.448Z,6.10
2019-05-02T23:51:33.917Z,5.23
2019-05-02T23:53:36.475Z,5.13
2019-05-02T23:55:39.036Z,7.70
2019-05-02T23:57:42.154Z,9.97
2019-05-02T23:59:44.199Z,7.80
